Sorlandet — LDTY — position and weather

sailwx.info

Track history (hours):
 
Tides and Currents Weather Stations Pressure Air Temp Water Temp Dewpoint Dewpoint Depression Visibility Wind Speed Wind Dir Waves Ship Positions

Sorlandet (Norway)

Last reported at 2018-May-27 08:00 UTC. Time now 2018-May-27 08:14 UTC.
Position N 57°44' E 010°57'.

Length 65 m; draft 4.5 m.

Type: Sailing vessel. MMSI: 257165000.

Date/timePositionNaut miles runAvg speedWind from/ knotsBaromVisibWave heightAir tempDewpointWater temp
2018-May-27 08:00N 57°44' E 010°57'2 4.4
2018-May-27 07:30N 57°43' E 011°01'2 4.2
2018-May-27 07:00N 57°42' E 011°04'3 5.2
2018-May-27 06:30N 57°40' E 011°08'3 5.7
2018-May-27 06:00N 57°38' E 011°11'2 4.9
2018-May-27 05:30N 57°36' E 011°15'2 4.5
2018-May-27 05:00N 57°35' E 011°18'2 5.0
2018-May-27 04:30N 57°33' E 011°21'3 6.7
2018-May-27 04:00N 57°31' E 011°26'3 6.3
2018-May-27 03:30N 57°29' E 011°30'3 6.3
2018-May-27 03:00N 57°26' E 011°34'3 6.1
2018-May-27 02:30N 57°24' E 011°38'3 6.3
2018-May-27 02:00N 57°22' E 011°42'3 6.4
2018-May-27 01:30N 57°20' E 011°46'4 6.3
2018-May-27 00:53N 57°17' E 011°51'2 6.3
2018-May-27 00:30N 57°15' E 011°54'3 6.0
2018-May-27 00:00N 57°12' E 011°56'3 6.6
2018-May-26 23:30N 57°09' E 011°59'6 6.7
2018-May-26 22:36N 57°04' E 012°02'53 6.3
2018-May-26 14:12N 56°13' E 012°27'2 6.2
2018-May-26 13:56N 56°11' E 012°28'3 6.6
2018-May-26 13:29N 56°09' E 012°31'4 7.4
2018-May-26 13:00N 56°06' E 012°35'4 7.5
2018-May-26 12:31N 56°03' E 012°40'3 6.3
2018-May-26 12:00N 56°00' E 012°41'3 5.5
2018-May-26 11:30N 55°58' E 012°43'3 6.2
2018-May-26 11:00N 55°55' E 012°45'3 6.0
2018-May-26 10:30N 55°52' E 012°45'3 6.0
2018-May-26 10:00N 55°49' E 012°44'3 6.0
2018-May-26 09:30N 55°46' E 012°42'3 5.6
2018-May-26 09:00N 55°44' E 012°39'2 4.4
2018-May-26 08:30N 55°42' E 012°36'1 2.4
2018-May-26 07:59N 55°41' E 012°36'0 0.0
2018-May-26 07:29N 55°41' E 012°36'0 0.0
2018-May-26 06:59N 55°41' E 012°36'0 0.0
2018-May-26 06:29N 55°41' E 012°36'0 0.0
2018-May-26 05:29N 55°41' E 012°36'0 0.0
2018-May-26 04:59N 55°41' E 012°36'0 0.0
2018-May-26 04:29N 55°41' E 012°36'0 0.0
2018-May-26 03:59N 55°41' E 012°36'0 0.0
2018-May-26 03:29N 55°41' E 012°36'0 0.0
2018-May-26 02:59N 55°41' E 012°36'0 0.0
2018-May-26 02:29N 55°41' E 012°36'0 0.0
2018-May-26 01:59N 55°41' E 012°36'0 0.0
2018-May-26 01:29N 55°41' E 012°36'0 0.0
2018-May-26 00:59N 55°41' E 012°36'0 0.0
2018-May-26 00:29N 55°41' E 012°36'0 0.0
2018-May-25 23:59N 55°41' E 012°36'0 0.0
2018-May-25 23:29N 55°41' E 012°36'0 0.0
2018-May-25 22:59N 55°41' E 012°36'0 0.0
2018-May-25 22:29N 55°41' E 012°36'0 0.0
2018-May-25 21:59N 55°41' E 012°36'0 0.0
2018-May-25 21:29N 55°41' E 012°36'0 0.0
2018-May-25 20:59N 55°41' E 012°36'0 0.0
2018-May-25 20:29N 55°41' E 012°36'0 0.0
2018-May-25 19:59N 55°41' E 012°36'0 0.0
2018-May-25 19:29N 55°41' E 012°36'0 0.0
2018-May-25 18:59N 55°41' E 012°36'0 0.0
2018-May-25 18:29N 55°41' E 012°36'0 0.0
2018-May-25 17:59N 55°41' E 012°36'0 0.0
2018-May-25 17:29N 55°41' E 012°36'0 0.0
2018-May-25 16:59N 55°41' E 012°36'0 0.0
2018-May-25 16:26N 55°41' E 012°36'0 0.0
2018-May-25 15:59N 55°41' E 012°36'0 0.0
2018-May-25 15:29N 55°41' E 012°36'0 0.0
2018-May-25 14:59N 55°41' E 012°36'0 0.0
2018-May-25 14:29N 55°41' E 012°36'0 0.0
2018-May-25 13:59N 55°41' E 012°36'0 0.0
2018-May-25 13:29N 55°41' E 012°36'0 0.0
2018-May-25 12:59N 55°41' E 012°36'0 0.0
2018-May-25 12:29N 55°41' E 012°36'0 0.0
2018-May-25 11:59N 55°41' E 012°36'0 0.0
2018-May-25 11:29N 55°41' E 012°36'0 0.0
2018-May-25 10:59N 55°41' E 012°36'0 0.0
2018-May-25 10:29N 55°41' E 012°36'0 0.0
2018-May-25 09:59N 55°41' E 012°36'0 0.0
2018-May-25 09:29N 55°41' E 012°36'0 0.0
2018-May-25 08:59N 55°41' E 012°36'0 0.0
2018-May-25 08:29N 55°41' E 012°36'0 0.0
2018-May-25 07:59N 55°41' E 012°36'0 0.0
2018-May-25 07:29N 55°41' E 012°36'0 0.0
2018-May-25 06:59N 55°41' E 012°36'0 0.0
2018-May-25 06:29N 55°41' E 012°36'0 0.0
2018-May-25 05:59N 55°41' E 012°36'0 0.0
2018-May-25 05:29N 55°41' E 012°36'0 0.0
2018-May-25 04:59N 55°41' E 012°36'0 0.0
2018-May-25 04:29N 55°41' E 012°36'0 0.0
2018-May-25 03:59N 55°41' E 012°36'0 0.0
2018-May-25 03:29N 55°41' E 012°36'0 0.0
2018-May-25 02:59N 55°41' E 012°36'0 0.0
2018-May-25 02:29N 55°41' E 012°36'0 0.0
2018-May-25 01:59N 55°41' E 012°36'0 0.0
2018-May-25 01:29N 55°41' E 012°36'0 0.0
2018-May-25 00:59N 55°41' E 012°36'0 0.0
2018-May-25 00:29N 55°41' E 012°36'0 0.0
2018-May-24 23:59N 55°41' E 012°36'0 0.0
2018-May-24 23:26N 55°41' E 012°36'0 0.0
2018-May-24 22:59N 55°41' E 012°36'0 0.0
2018-May-24 22:29N 55°41' E 012°36'0 0.0
2018-May-24 21:56N 55°41' E 012°36'0 0.0
2018-May-24 21:29N 55°41' E 012°36'0 0.0
2018-May-24 20:59N 55°41' E 012°36'0 0.0
2018-May-24 20:29N 55°41' E 012°36'0 0.0
2018-May-24 19:59N 55°41' E 012°36'0 0.0
2018-May-24 19:29N 55°41' E 012°36'0 0.0
2018-May-24 18:59N 55°41' E 012°36'0 0.0
2018-May-24 18:29N 55°41' E 012°36'0 0.0
2018-May-24 17:59N 55°41' E 012°36'0 0.0
2018-May-24 17:29N 55°41' E 012°36'0 0.0
2018-May-24 16:59N 55°41' E 012°36'0 0.0
2018-May-24 16:29N 55°41' E 012°36'0 0.0
2018-May-24 15:59N 55°41' E 012°36'0 0.0
2018-May-24 15:29N 55°41' E 012°36'0 0.0
2018-May-24 14:59N 55°41' E 012°36'0 0.0
2018-May-24 14:29N 55°41' E 012°36'0 0.0
2018-May-24 13:59N 55°41' E 012°36'0 0.0
2018-May-24 13:29N 55°41' E 012°36'0 0.0
2018-May-24 08:56N 55°41' E 012°36'0 0.0
2018-May-24 08:29N 55°41' E 012°36'0 0.0
2018-May-24 07:59N 55°41' E 012°36'0 0.0
2018-May-24 07:29N 55°41' E 012°36'0 0.0
2018-May-24 06:59N 55°41' E 012°36'0 0.0
2018-May-24 06:29N 55°41' E 012°36'0 0.0
2018-May-24 05:56N 55°41' E 012°36'0 0.0
2018-May-24 05:29N 55°41' E 012°36'0 0.0
2018-May-24 04:59N 55°41' E 012°36'0 0.0
2018-May-24 04:29N 55°41' E 012°36'0 0.0
2018-May-24 03:59N 55°41' E 012°36'0 0.0
2018-May-24 03:29N 55°41' E 012°36'0 0.0
2018-May-24 02:59N 55°41' E 012°36'0 0.0
2018-May-24 02:29N 55°41' E 012°36'0 0.0
2018-May-24 01:59N 55°41' E 012°36'0 0.0
2018-May-24 01:29N 55°41' E 012°36'0 0.0
2018-May-24 00:59N 55°41' E 012°36'0 0.0
2018-May-24 00:29N 55°41' E 012°36'0 0.0
2018-May-23 23:59N 55°41' E 012°36'0 0.0
2018-May-23 23:29N 55°41' E 012°36'0 0.0
2018-May-23 22:59N 55°41' E 012°36'0 0.0
2018-May-23 22:29N 55°41' E 012°36'0 0.0
2018-May-23 21:59N 55°41' E 012°36'0 0.0
2018-May-23 21:29N 55°41' E 012°36'0 0.0
2018-May-23 20:59N 55°41' E 012°36'0 0.0
2018-May-23 20:29N 55°41' E 012°36'0 0.0
2018-May-23 19:59N 55°41' E 012°36'0 0.0
2018-May-23 19:29N 55°41' E 012°36'0 0.0
2018-May-23 18:59N 55°41' E 012°36'0 0.0
2018-May-23 18:29N 55°41' E 012°36'0 0.0
2018-May-23 17:59N 55°41' E 012°36'0 0.0
2018-May-23 17:29N 55°41' E 012°36'0 0.0
2018-May-23 16:59N 55°41' E 012°36'0 0.0
2018-May-23 16:29N 55°41' E 012°36'0 0.0
2018-May-23 15:59N 55°41' E 012°36'0 0.0
2018-May-23 15:29N 55°41' E 012°36'0 0.0
2018-May-23 14:59N 55°41' E 012°36'0 0.0
2018-May-23 14:29N 55°41' E 012°36'0 0.0
2018-May-23 13:59N 55°41' E 012°36'0 0.0
2018-May-23 13:29N 55°41' E 012°36'0 0.0
2018-May-23 12:59N 55°41' E 012°36'0 0.0
2018-May-23 12:29N 55°41' E 012°36'0 0.0
2018-May-23 11:59N 55°41' E 012°36'0 0.0
2018-May-23 11:29N 55°41' E 012°36'0 0.0
2018-May-23 10:59N 55°41' E 012°36'0 0.0
2018-May-23 10:29N 55°41' E 012°36'0 0.0
2018-May-23 09:59N 55°41' E 012°36'0 0.0
2018-May-23 09:28N 55°41' E 012°36'0 0.0
2018-May-23 08:59N 55°41' E 012°36'0 0.0
2018-May-23 08:29N 55°41' E 012°36'0 0.0
2018-May-23 07:59N 55°41' E 012°36'0 0.0
2018-May-23 07:29N 55°41' E 012°36'0 0.0
2018-May-23 06:59N 55°41' E 012°36'0 0.0
2018-May-23 06:29N 55°41' E 012°36'0 0.0
2018-May-23 05:59N 55°41' E 012°36'0 0.0
2018-May-23 05:29N 55°41' E 012°36'0 0.0
2018-May-23 04:59N 55°41' E 012°36'0 0.0
2018-May-23 04:29N 55°41' E 012°36'0 0.0
2018-May-23 03:59N 55°41' E 012°36'0 0.0
2018-May-23 03:29N 55°41' E 012°36'0 0.0
2018-May-23 02:59N 55°41' E 012°36'0 0.0
2018-May-23 02:28N 55°41' E 012°36'0 0.0
2018-May-23 01:59N 55°41' E 012°36'0 0.0
2018-May-23 01:29N 55°41' E 012°36'0 0.0
2018-May-23 00:59N 55°41' E 012°36'0 0.0
2018-May-23 00:29N 55°41' E 012°36'0 0.0
2018-May-22 23:59N 55°41' E 012°36'0 0.0
2018-May-22 23:29N 55°41' E 012°36'0 0.0
2018-May-22 22:58N 55°41' E 012°36'0 0.0
2018-May-22 22:28N 55°41' E 012°36'0 0.0
2018-May-22 21:58N 55°41' E 012°36'0 0.0
2018-May-22 21:29N 55°41' E 012°36'0 0.0
2018-May-22 20:59N 55°41' E 012°36'0 0.0
2018-May-22 20:29N 55°41' E 012°36'0 0.0
2018-May-22 19:59N 55°41' E 012°36'0 0.0
2018-May-22 19:29N 55°41' E 012°36'0 0.0
2018-May-22 18:59N 55°41' E 012°36'0 0.0
2018-May-22 18:28N 55°41' E 012°36'0 0.0
2018-May-22 17:59N 55°41' E 012°36'0 0.0
2018-May-22 17:29N 55°41' E 012°36'0 0.0
2018-May-22 16:58N 55°41' E 012°36'0 0.0
2018-May-22 16:29N 55°41' E 012°36'0 0.0
2018-May-22 15:59N 55°41' E 012°36'0 0.0
2018-May-22 15:29N 55°41' E 012°36'0 0.0
2018-May-22 14:59N 55°41' E 012°36'0 0.0
2018-May-22 14:28N 55°41' E 012°36'0 0.0
2018-May-22 13:55N 55°41' E 012°36'0 0.0
2018-May-22 13:28N 55°41' E 012°36'0 0.0
2018-May-22 12:59N 55°41' E 012°36'0 0.0
2018-May-22 12:28N 55°41' E 012°36'0 0.0
2018-May-22 11:58N 55°41' E 012°36'0 0.0
2018-May-22 11:29N 55°41' E 012°36'0 0.0
2018-May-22 10:59N 55°41' E 012°36'0 0.0
2018-May-22 10:29N 55°41' E 012°36'0 0.0
2018-May-22 09:58N 55°41' E 012°36'0 0.0
2018-May-22 09:29N 55°41' E 012°36'0 0.0
2018-May-22 08:59N 55°41' E 012°36'0 0.0
2018-May-22 08:28N 55°41' E 012°36'0 0.0
2018-May-22 07:55N 55°41' E 012°36'0 0.0
2018-May-22 07:25N 55°41' E 012°36'0 0.0
2018-May-22 06:58N 55°41' E 012°36'0 0.0
2018-May-22 06:28N 55°41' E 012°36'0 0.0
2018-May-22 05:58N 55°41' E 012°36'0 0.0
2018-May-22 05:28N 55°41' E 012°36'0 0.0
2018-May-22 04:58N 55°41' E 012°36'0 0.0
2018-May-22 04:25N 55°41' E 012°36'0 0.0
2018-May-22 03:58N 55°41' E 012°36'0 0.0
2018-May-22 03:29N 55°41' E 012°36'0 0.0
2018-May-22 02:58N 55°41' E 012°36'0 0.0
2018-May-22 02:28N 55°41' E 012°36'0 0.0
2018-May-22 01:58N 55°41' E 012°36'0 0.0
2018-May-22 01:28N 55°41' E 012°36'0 0.0
2018-May-22 00:58N 55°41' E 012°36'0 0.0
2018-May-22 00:28N 55°41' E 012°36'0 0.0
2018-May-21 23:58N 55°41' E 012°36'0 0.0
2018-May-21 23:28N 55°41' E 012°36'0 0.0
2018-May-21 22:58N 55°41' E 012°36'0 0.0
2018-May-21 22:28N 55°41' E 012°36'0 0.0
2018-May-21 21:58N 55°41' E 012°36'0 0.0
2018-May-21 21:28N 55°41' E 012°36'0 0.0
2018-May-21 20:58N 55°41' E 012°36'0 0.0
2018-May-21 20:28N 55°41' E 012°36'0 0.0
2018-May-21 19:58N 55°41' E 012°36'0 0.0
2018-May-21 19:28N 55°41' E 012°36'0 0.0
2018-May-21 18:58N 55°41' E 012°36'0 0.0
2018-May-21 18:28N 55°41' E 012°36'0 0.0
2018-May-21 17:58N 55°41' E 012°36'0 0.0
2018-May-21 17:28N 55°41' E 012°36'0 0.0
2018-May-21 16:58N 55°41' E 012°36'0 0.0
2018-May-21 16:28N 55°41' E 012°36'0 0.0
2018-May-21 15:58N 55°41' E 012°36'0 0.0
2018-May-21 15:28N 55°41' E 012°36'0 0.0
2018-May-21 14:55N 55°41' E 012°36'0 0.0
2018-May-21 14:28N 55°41' E 012°36'0 0.0
2018-May-21 13:58N 55°41' E 012°36'0 0.0
2018-May-21 13:28N 55°41' E 012°36'0 0.0
2018-May-21 12:58N 55°41' E 012°36'0 0.0
2018-May-21 12:28N 55°41' E 012°36'0 0.0
2018-May-21 11:58N 55°41' E 012°36'0 0.0
2018-May-21 11:28N 55°41' E 012°36'0 0.0
2018-May-21 10:58N 55°41' E 012°36'0 0.0
2018-May-21 10:28N 55°41' E 012°36'0 0.0
2018-May-21 09:58N 55°41' E 012°36'0 0.0
2018-May-21 09:28N 55°41' E 012°36'0 0.0
2018-May-21 08:58N 55°41' E 012°36'0 0.0
2018-May-21 08:28N 55°41' E 012°36'0 0.0
2018-May-21 08:01N 55°41' E 012°36'0 0.8
2018-May-21 07:31N 55°41' E 012°36'2 3.2
2018-May-21 07:01N 55°42' E 012°38'2 4.6
2018-May-21 06:30N 55°40' E 012°40'2 3.2
2018-May-21 06:01N 55°39' E 012°41'2 3.1
2018-May-21 05:31N 55°37' E 012°42'1 2.8
2018-May-21 05:01N 55°36' E 012°42'2 3.2
2018-May-21 04:31N 55°34' E 012°42'2 3.4
2018-May-21 04:01N 55°33' E 012°42'1 2.5
2018-May-21 03:30N 55°32' E 012°42'1 1.9
2018-May-21 03:01N 55°31' E 012°41'2 3.1
2018-May-21 02:31N 55°29' E 012°40'2 3.4
2018-May-21 02:01N 55°28' E 012°39'2 3.4
2018-May-21 01:31N 55°26' E 012°38'2 3.3
2018-May-21 01:01N 55°24' E 012°37'2 3.7
2018-May-21 00:31N 55°23' E 012°37'2 3.8
2018-May-21 00:00N 55°21' E 012°36'2 3.9
2018-May-20 23:31N 55°19' E 012°35'2 4.3
2018-May-20 23:01N 55°17' E 012°35'3 5.2
2018-May-20 22:26N 55°14' E 012°35'3 5.1
2018-May-20 21:55N 55°11' E 012°35'3 4.5
2018-May-20 21:20N 55°08' E 012°35'1 3.8
2018-May-20 21:01N 55°07' E 012°35'2 4.4
2018-May-20 20:30N 55°05' E 012°35'2 4.6
2018-May-20 20:00N 55°03' E 012°35'3 3.5
2018-May-20 19:13N 54°60' E 012°35'1 3.3
2018-May-20 18:51N 54°59' E 012°35'2 6.5
2018-May-20 18:31N 54°57' E 012°34'3 5.8
2018-May-20 18:00N 54°54' E 012°32'3 5.4
2018-May-20 17:29N 54°52' E 012°29'2 4.7
2018-May-20 17:01N 54°50' E 012°26'1 1.3
2018-May-20 16:17N 54°50' E 012°25'1 4.3
2018-May-20 16:00N 54°52' E 012°24'2 4.2
2018-May-20 15:26N 54°54' E 012°23'1 2.2
2018-May-20 15:00N 54°55' E 012°24'1 2.6
2018-May-20 14:30N 54°54' E 012°23'1 3.0
2018-May-20 14:00N 54°52' E 012°22'1 2.9
2018-May-20 13:30N 54°51' E 012°21'3 2.4
2018-May-20 12:23N 54°49' E 012°19'1 2.5
2018-May-20 12:00N 54°48' E 012°18'1 2.9
2018-May-20 11:30N 54°46' E 012°18'2 3.0
2018-May-20 10:57N 54°45' E 012°18'3 2.0
2018-May-20 09:22N 54°42' E 012°18'0 1.0
2018-May-20 09:01N 54°41' E 012°19'0 0.6
2018-May-20 08:21N 54°41' E 012°19'0 0.8
2018-May-20 08:00N 54°41' E 012°19'1 1.1
2018-May-20 07:30N 54°40' E 012°18'2 3.1
2018-May-20 06:56N 54°39' E 012°17'3 6.6
2018-May-20 06:30N 54°36' E 012°19'3 5.7
2018-May-20 06:00N 54°33' E 012°17'3 6.1
2018-May-20 05:31N 54°31' E 012°16'3 6.1
2018-May-20 05:00N 54°28' E 012°14'3 5.8
2018-May-20 04:31N 54°25' E 012°11'3 5.7
2018-May-20 04:00N 54°24' E 012°08'3 6.0
2018-May-20 03:31N 54°24' E 012°03'3 6.0
2018-May-20 03:01N 54°24' E 011°57'3 6.2
2018-May-20 02:31N 54°24' E 011°52'3 6.2
2018-May-20 02:01N 54°25' E 011°47'3 6.3
2018-May-20 01:30N 54°25' E 011°42'3 6.0
2018-May-20 01:01N 54°27' E 011°37'3 6.2
2018-May-20 00:30N 54°28' E 011°32'3 6.0
2018-May-20 00:01N 54°30' E 011°28'3 5.5
2018-May-19 23:31N 54°31' E 011°24'3 5.2
2018-May-19 23:01N 54°32' E 011°20'3 5.1
2018-May-19 22:31N 54°33' E 011°16'2 5.0
2018-May-19 22:01N 54°34' E 011°12'3 5.1
2018-May-19 21:23N 54°34' E 011°06'2 5.3
2018-May-19 21:01N 54°35' E 011°03'3 5.0
2018-May-19 20:31N 54°35' E 010°58'3 5.3
2018-May-19 20:01N 54°34' E 010°54'3 5.6
2018-May-19 19:31N 54°34' E 010°49'3 5.8
2018-May-19 19:01N 54°34' E 010°44'3 5.7
2018-May-19 18:31N 54°34' E 010°39'3 5.7
2018-May-19 18:01N 54°33' E 010°34'3 6.0
2018-May-19 17:31N 54°32' E 010°29'3 6.2
2018-May-19 17:01N 54°31' E 010°25'3 6.2
2018-May-19 16:30N 54°29' E 010°20'3 6.1
2018-May-19 16:01N 54°27' E 010°16'3 6.0
2018-May-19 15:31N 54°25' E 010°13'4 5.8
2018-May-19 14:55N 54°22' E 010°10'1 1.6
2018-May-19 14:20N 54°22' E 010°08'12 5.2
2018-May-19 11:57N 54°22' E 009°47'3 6.6
2018-May-19 11:31N 54°20' E 009°43'3 6.1
2018-May-19 11:00N 54°17' E 009°40'3 5.1
2018-May-19 10:30N 54°15' E 009°37'3 5.8
2018-May-19 10:00N 54°13' E 009°35'2 3.9
2018-May-19 09:30N 54°12' E 009°32'3 6.0
2018-May-19 09:00N 54°11' E 009°28'3 6.8
2018-May-19 08:30N 54°09' E 009°22'4 6.4
2018-May-19 07:49N 54°05' E 009°19'2 6.9
2018-May-19 07:30N 54°03' E 009°18'3 6.8
2018-May-19 07:00N 53°60' E 009°17'3 6.7
2018-May-19 06:30N 53°57' E 009°14'3 6.6
2018-May-19 06:00N 53°55' E 009°10'1 2.7
2018-May-19 05:30N 53°54' E 009°09'1 1.4
2018-May-19 05:00N 53°53' E 009°08'2 4.3
2018-May-19 04:30N 53°52' E 009°05'3 5.2
2018-May-19 04:00N 53°51' E 009°01'2 4.6
2018-May-19 03:30N 53°51' E 008°57'3 5.1
2018-May-19 03:00N 53°50' E 008°52'2 3.7
2018-May-19 02:30N 53°50' E 008°49'2 4.0
2018-May-19 02:00N 53°51' E 008°46'2 3.9
2018-May-19 01:30N 53°52' E 008°44'2 4.4
2018-May-19 00:59N 53°54' E 008°41'2 4.0
2018-May-19 00:30N 53°56' E 008°40'126 6.8
2018-May-18 06:08N 53°31' E 005°12'1 7.8
2018-May-18 05:57N 53°30' E 005°09'3 7.7
2018-May-18 05:30N 53°29' E 005°04'3 6.6
2018-May-18 05:00N 53°28' E 004°59'3 5.8
2018-May-18 04:31N 53°27' E 004°54'  
Track history (hours):
 
Tides and Currents Weather Stations Pressure Air Temp Water Temp Dewpoint Dewpoint Depression Visibility Wind Speed Wind Dir Waves Ship Positions

Sorlandet (Norway)

Last reported at 2018-May-27 08:00 UTC. Time now 2018-May-27 08:14 UTC.
Position N 57°44' E 010°57'.

Length 65 m; draft 4.5 m.

Type: Sailing vessel. MMSI: 257165000.

Date/timePositionNaut miles runAvg speedWind from/ knotsBaromVisibWave heightAir tempDewpointWater temp
2018-May-27 08:00N 57°44' E 010°57'2 4.4
2018-May-27 07:30N 57°43' E 011°01'2 4.2
2018-May-27 07:00N 57°42' E 011°04'3 5.2
2018-May-27 06:30N 57°40' E 011°08'3 5.7
2018-May-27 06:00N 57°38' E 011°11'2 4.9
2018-May-27 05:30N 57°36' E 011°15'2 4.5
2018-May-27 05:00N 57°35' E 011°18'2 5.0
2018-May-27 04:30N 57°33' E 011°21'3 6.7
2018-May-27 04:00N 57°31' E 011°26'3 6.3
2018-May-27 03:30N 57°29' E 011°30'3 6.3
2018-May-27 03:00N 57°26' E 011°34'3 6.1
2018-May-27 02:30N 57°24' E 011°38'3 6.3
2018-May-27 02:00N 57°22' E 011°42'3 6.4
2018-May-27 01:30N 57°20' E 011°46'4 6.3
2018-May-27 00:53N 57°17' E 011°51'2 6.3
2018-May-27 00:30N 57°15' E 011°54'3 6.0
2018-May-27 00:00N 57°12' E 011°56'3 6.6
2018-May-26 23:30N 57°09' E 011°59'6 6.7
2018-May-26 22:36N 57°04' E 012°02'53 6.3
2018-May-26 14:12N 56°13' E 012°27'2 6.2
2018-May-26 13:56N 56°11' E 012°28'3 6.6
2018-May-26 13:29N 56°09' E 012°31'4 7.4
2018-May-26 13:00N 56°06' E 012°35'4 7.5
2018-May-26 12:31N 56°03' E 012°40'3 6.3
2018-May-26 12:00N 56°00' E 012°41'3 5.5
2018-May-26 11:30N 55°58' E 012°43'3 6.2
2018-May-26 11:00N 55°55' E 012°45'3 6.0
2018-May-26 10:30N 55°52' E 012°45'3 6.0
2018-May-26 10:00N 55°49' E 012°44'3 6.0
2018-May-26 09:30N 55°46' E 012°42'3 5.6
2018-May-26 09:00N 55°44' E 012°39'2 4.4
2018-May-26 08:30N 55°42' E 012°36'1 2.4
2018-May-26 07:59N 55°41' E 012°36'0 0.0
2018-May-26 07:29N 55°41' E 012°36'0 0.0
2018-May-26 06:59N 55°41' E 012°36'0 0.0
2018-May-26 06:29N 55°41' E 012°36'0 0.0
2018-May-26 05:29N 55°41' E 012°36'0 0.0
2018-May-26 04:59N 55°41' E 012°36'0 0.0
2018-May-26 04:29N 55°41' E 012°36'0 0.0
2018-May-26 03:59N 55°41' E 012°36'0 0.0
2018-May-26 03:29N 55°41' E 012°36'0 0.0
2018-May-26 02:59N 55°41' E 012°36'0 0.0
2018-May-26 02:29N 55°41' E 012°36'0 0.0
2018-May-26 01:59N 55°41' E 012°36'0 0.0
2018-May-26 01:29N 55°41' E 012°36'0 0.0
2018-May-26 00:59N 55°41' E 012°36'0 0.0
2018-May-26 00:29N 55°41' E 012°36'0 0.0
2018-May-25 23:59N 55°41' E 012°36'0 0.0
2018-May-25 23:29N 55°41' E 012°36'0 0.0
2018-May-25 22:59N 55°41' E 012°36'0 0.0
2018-May-25 22:29N 55°41' E 012°36'0 0.0
2018-May-25 21:59N 55°41' E 012°36'0 0.0
2018-May-25 21:29N 55°41' E 012°36'0 0.0
2018-May-25 20:59N 55°41' E 012°36'0 0.0
2018-May-25 20:29N 55°41' E 012°36'0 0.0
2018-May-25 19:59N 55°41' E 012°36'0 0.0
2018-May-25 19:29N 55°41' E 012°36'0 0.0
2018-May-25 18:59N 55°41' E 012°36'0 0.0
2018-May-25 18:29N 55°41' E 012°36'0 0.0
2018-May-25 17:59N 55°41' E 012°36'0 0.0
2018-May-25 17:29N 55°41' E 012°36'0 0.0
2018-May-25 16:59N 55°41' E 012°36'0 0.0
2018-May-25 16:26N 55°41' E 012°36'0 0.0
2018-May-25 15:59N 55°41' E 012°36'0 0.0
2018-May-25 15:29N 55°41' E 012°36'0 0.0
2018-May-25 14:59N 55°41' E 012°36'0 0.0
2018-May-25 14:29N 55°41' E 012°36'0 0.0
2018-May-25 13:59N 55°41' E 012°36'0 0.0
2018-May-25 13:29N 55°41' E 012°36'0 0.0
2018-May-25 12:59N 55°41' E 012°36'0 0.0
2018-May-25 12:29N 55°41' E 012°36'0 0.0
2018-May-25 11:59N 55°41' E 012°36'0 0.0
2018-May-25 11:29N 55°41' E 012°36'0 0.0
2018-May-25 10:59N 55°41' E 012°36'0 0.0
2018-May-25 10:29N 55°41' E 012°36'0 0.0
2018-May-25 09:59N 55°41' E 012°36'0 0.0
2018-May-25 09:29N 55°41' E 012°36'0 0.0
2018-May-25 08:59N 55°41' E 012°36'0 0.0
2018-May-25 08:29N 55°41' E 012°36'0 0.0
2018-May-25 07:59N 55°41' E 012°36'0 0.0
2018-May-25 07:29N 55°41' E 012°36'0 0.0
2018-May-25 06:59N 55°41' E 012°36'0 0.0
2018-May-25 06:29N 55°41' E 012°36'0 0.0
2018-May-25 05:59N 55°41' E 012°36'0 0.0
2018-May-25 05:29N 55°41' E 012°36'0 0.0
2018-May-25 04:59N 55°41' E 012°36'0 0.0
2018-May-25 04:29N 55°41' E 012°36'0 0.0
2018-May-25 03:59N 55°41' E 012°36'0 0.0
2018-May-25 03:29N 55°41' E 012°36'0 0.0
2018-May-25 02:59N 55°41' E 012°36'0 0.0
2018-May-25 02:29N 55°41' E 012°36'0 0.0
2018-May-25 01:59N 55°41' E 012°36'0 0.0
2018-May-25 01:29N 55°41' E 012°36'0 0.0
2018-May-25 00:59N 55°41' E 012°36'0 0.0
2018-May-25 00:29N 55°41' E 012°36'0 0.0
2018-May-24 23:59N 55°41' E 012°36'0 0.0
2018-May-24 23:26N 55°41' E 012°36'0 0.0
2018-May-24 22:59N 55°41' E 012°36'0 0.0
2018-May-24 22:29N 55°41' E 012°36'0 0.0
2018-May-24 21:56N 55°41' E 012°36'0 0.0
2018-May-24 21:29N 55°41' E 012°36'0 0.0
2018-May-24 20:59N 55°41' E 012°36'0 0.0
2018-May-24 20:29N 55°41' E 012°36'0 0.0
2018-May-24 19:59N 55°41' E 012°36'0 0.0
2018-May-24 19:29N 55°41' E 012°36'0 0.0
2018-May-24 18:59N 55°41' E 012°36'0 0.0
2018-May-24 18:29N 55°41' E 012°36'0 0.0
2018-May-24 17:59N 55°41' E 012°36'0 0.0
2018-May-24 17:29N 55°41' E 012°36'0 0.0
2018-May-24 16:59N 55°41' E 012°36'0 0.0
2018-May-24 16:29N 55°41' E 012°36'0 0.0
2018-May-24 15:59N 55°41' E 012°36'0 0.0
2018-May-24 15:29N 55°41' E 012°36'0 0.0
2018-May-24 14:59N 55°41' E 012°36'0 0.0
2018-May-24 14:29N 55°41' E 012°36'0 0.0
2018-May-24 13:59N 55°41' E 012°36'0 0.0
2018-May-24 13:29N 55°41' E 012°36'0 0.0
2018-May-24 08:56N 55°41' E 012°36'0 0.0
2018-May-24 08:29N 55°41' E 012°36'0 0.0
2018-May-24 07:59N 55°41' E 012°36'0 0.0
2018-May-24 07:29N 55°41' E 012°36'0 0.0
2018-May-24 06:59N 55°41' E 012°36'0 0.0
2018-May-24 06:29N 55°41' E 012°36'0 0.0
2018-May-24 05:56N 55°41' E 012°36'0 0.0
2018-May-24 05:29N 55°41' E 012°36'0 0.0
2018-May-24 04:59N 55°41' E 012°36'0 0.0
2018-May-24 04:29N 55°41' E 012°36'0 0.0
2018-May-24 03:59N 55°41' E 012°36'0 0.0
2018-May-24 03:29N 55°41' E 012°36'0 0.0
2018-May-24 02:59N 55°41' E 012°36'0 0.0
2018-May-24 02:29N 55°41' E 012°36'0 0.0
2018-May-24 01:59N 55°41' E 012°36'0 0.0
2018-May-24 01:29N 55°41' E 012°36'0 0.0
2018-May-24 00:59N 55°41' E 012°36'0 0.0
2018-May-24 00:29N 55°41' E 012°36'0 0.0
2018-May-23 23:59N 55°41' E 012°36'0 0.0
2018-May-23 23:29N 55°41' E 012°36'0 0.0
2018-May-23 22:59N 55°41' E 012°36'0 0.0
2018-May-23 22:29N 55°41' E 012°36'0 0.0
2018-May-23 21:59N 55°41' E 012°36'0 0.0
2018-May-23 21:29N 55°41' E 012°36'0 0.0
2018-May-23 20:59N 55°41' E 012°36'0 0.0
2018-May-23 20:29N 55°41' E 012°36'0 0.0
2018-May-23 19:59N 55°41' E 012°36'0 0.0
2018-May-23 19:29N 55°41' E 012°36'0 0.0
2018-May-23 18:59N 55°41' E 012°36'0 0.0
2018-May-23 18:29N 55°41' E 012°36'0 0.0
2018-May-23 17:59N 55°41' E 012°36'0 0.0
2018-May-23 17:29N 55°41' E 012°36'0 0.0
2018-May-23 16:59N 55°41' E 012°36'0 0.0
2018-May-23 16:29N 55°41' E 012°36'0 0.0
2018-May-23 15:59N 55°41' E 012°36'0 0.0
2018-May-23 15:29N 55°41' E 012°36'0 0.0
2018-May-23 14:59N 55°41' E 012°36'0 0.0
2018-May-23 14:29N 55°41' E 012°36'0 0.0
2018-May-23 13:59N 55°41' E 012°36'0 0.0
2018-May-23 13:29N 55°41' E 012°36'0 0.0
2018-May-23 12:59N 55°41' E 012°36'0 0.0
2018-May-23 12:29N 55°41' E 012°36'0 0.0
2018-May-23 11:59N 55°41' E 012°36'0 0.0
2018-May-23 11:29N 55°41' E 012°36'0 0.0
2018-May-23 10:59N 55°41' E 012°36'0 0.0
2018-May-23 10:29N 55°41' E 012°36'0 0.0
2018-May-23 09:59N 55°41' E 012°36'0 0.0
2018-May-23 09:28N 55°41' E 012°36'0 0.0
2018-May-23 08:59N 55°41' E 012°36'0 0.0
2018-May-23 08:29N 55°41' E 012°36'0 0.0
2018-May-23 07:59N 55°41' E 012°36'0 0.0
2018-May-23 07:29N 55°41' E 012°36'0 0.0
2018-May-23 06:59N 55°41' E 012°36'0 0.0
2018-May-23 06:29N 55°41' E 012°36'0 0.0
2018-May-23 05:59N 55°41' E 012°36'0 0.0
2018-May-23 05:29N 55°41' E 012°36'0 0.0
2018-May-23 04:59N 55°41' E 012°36'0 0.0
2018-May-23 04:29N 55°41' E 012°36'0 0.0
2018-May-23 03:59N 55°41' E 012°36'0 0.0
2018-May-23 03:29N 55°41' E 012°36'0 0.0
2018-May-23 02:59N 55°41' E 012°36'0 0.0
2018-May-23 02:28N 55°41' E 012°36'0 0.0
2018-May-23 01:59N 55°41' E 012°36'0 0.0
2018-May-23 01:29N 55°41' E 012°36'0 0.0
2018-May-23 00:59N 55°41' E 012°36'0 0.0
2018-May-23 00:29N 55°41' E 012°36'0 0.0
2018-May-22 23:59N 55°41' E 012°36'0 0.0
2018-May-22 23:29N 55°41' E 012°36'0 0.0
2018-May-22 22:58N 55°41' E 012°36'0 0.0
2018-May-22 22:28N 55°41' E 012°36'0 0.0
2018-May-22 21:58N 55°41' E 012°36'0 0.0
2018-May-22 21:29N 55°41' E 012°36'0 0.0
2018-May-22 20:59N 55°41' E 012°36'0 0.0
2018-May-22 20:29N 55°41' E 012°36'0 0.0
2018-May-22 19:59N 55°41' E 012°36'0 0.0
2018-May-22 19:29N 55°41' E 012°36'0 0.0
2018-May-22 18:59N 55°41' E 012°36'0 0.0
2018-May-22 18:28N 55°41' E 012°36'0 0.0
2018-May-22 17:59N 55°41' E 012°36'0 0.0
2018-May-22 17:29N 55°41' E 012°36'0 0.0
2018-May-22 16:58N 55°41' E 012°36'0 0.0
2018-May-22 16:29N 55°41' E 012°36'0 0.0
2018-May-22 15:59N 55°41' E 012°36'0 0.0
2018-May-22 15:29N 55°41' E 012°36'0 0.0
2018-May-22 14:59N 55°41' E 012°36'0 0.0
2018-May-22 14:28N 55°41' E 012°36'0 0.0
2018-May-22 13:55N 55°41' E 012°36'0 0.0
2018-May-22 13:28N 55°41' E 012°36'0 0.0
2018-May-22 12:59N 55°41' E 012°36'0 0.0
2018-May-22 12:28N 55°41' E 012°36'0 0.0
2018-May-22 11:58N 55°41' E 012°36'0 0.0
2018-May-22 11:29N 55°41' E 012°36'0 0.0
2018-May-22 10:59N 55°41' E 012°36'0 0.0
2018-May-22 10:29N 55°41' E 012°36'0 0.0
2018-May-22 09:58N 55°41' E 012°36'0 0.0
2018-May-22 09:29N 55°41' E 012°36'0 0.0
2018-May-22 08:59N 55°41' E 012°36'0 0.0
2018-May-22 08:28N 55°41' E 012°36'0 0.0
2018-May-22 07:55N 55°41' E 012°36'0 0.0
2018-May-22 07:25N 55°41' E 012°36'0 0.0
2018-May-22 06:58N 55°41' E 012°36'0 0.0
2018-May-22 06:28N 55°41' E 012°36'0 0.0
2018-May-22 05:58N 55°41' E 012°36'0 0.0
2018-May-22 05:28N 55°41' E 012°36'0 0.0
2018-May-22 04:58N 55°41' E 012°36'0 0.0
2018-May-22 04:25N 55°41' E 012°36'0 0.0
2018-May-22 03:58N 55°41' E 012°36'0 0.0
2018-May-22 03:29N 55°41' E 012°36'0 0.0
2018-May-22 02:58N 55°41' E 012°36'0 0.0
2018-May-22 02:28N 55°41' E 012°36'0 0.0
2018-May-22 01:58N 55°41' E 012°36'0 0.0
2018-May-22 01:28N 55°41' E 012°36'0 0.0
2018-May-22 00:58N 55°41' E 012°36'0 0.0
2018-May-22 00:28N 55°41' E 012°36'0 0.0
2018-May-21 23:58N 55°41' E 012°36'0 0.0
2018-May-21 23:28N 55°41' E 012°36'0 0.0
2018-May-21 22:58N 55°41' E 012°36'0 0.0
2018-May-21 22:28N 55°41' E 012°36'0 0.0
2018-May-21 21:58N 55°41' E 012°36'0 0.0
2018-May-21 21:28N 55°41' E 012°36'0 0.0
2018-May-21 20:58N 55°41' E 012°36'0 0.0
2018-May-21 20:28N 55°41' E 012°36'0 0.0
2018-May-21 19:58N 55°41' E 012°36'0 0.0
2018-May-21 19:28N 55°41' E 012°36'0 0.0
2018-May-21 18:58N 55°41' E 012°36'0 0.0
2018-May-21 18:28N 55°41' E 012°36'0 0.0
2018-May-21 17:58N 55°41' E 012°36'0 0.0
2018-May-21 17:28N 55°41' E 012°36'0 0.0
2018-May-21 16:58N 55°41' E 012°36'0 0.0
2018-May-21 16:28N 55°41' E 012°36'0 0.0
2018-May-21 15:58N 55°41' E 012°36'0 0.0
2018-May-21 15:28N 55°41' E 012°36'0 0.0
2018-May-21 14:55N 55°41' E 012°36'0 0.0
2018-May-21 14:28N 55°41' E 012°36'0 0.0
2018-May-21 13:58N 55°41' E 012°36'0 0.0
2018-May-21 13:28N 55°41' E 012°36'0 0.0
2018-May-21 12:58N 55°41' E 012°36'0 0.0
2018-May-21 12:28N 55°41' E 012°36'0 0.0
2018-May-21 11:58N 55°41' E 012°36'0 0.0
2018-May-21 11:28N 55°41' E 012°36'0 0.0
2018-May-21 10:58N 55°41' E 012°36'0 0.0
2018-May-21 10:28N 55°41' E 012°36'0 0.0
2018-May-21 09:58N 55°41' E 012°36'0 0.0
2018-May-21 09:28N 55°41' E 012°36'0 0.0
2018-May-21 08:58N 55°41' E 012°36'0 0.0
2018-May-21 08:28N 55°41' E 012°36'0 0.0
2018-May-21 08:01N 55°41' E 012°36'0 0.8
2018-May-21 07:31N 55°41' E 012°36'2 3.2
2018-May-21 07:01N 55°42' E 012°38'2 4.6
2018-May-21 06:30N 55°40' E 012°40'2 3.2
2018-May-21 06:01N 55°39' E 012°41'2 3.1
2018-May-21 05:31N 55°37' E 012°42'1 2.8
2018-May-21 05:01N 55°36' E 012°42'2 3.2
2018-May-21 04:31N 55°34' E 012°42'2 3.4
2018-May-21 04:01N 55°33' E 012°42'1 2.5
2018-May-21 03:30N 55°32' E 012°42'1 1.9
2018-May-21 03:01N 55°31' E 012°41'2 3.1
2018-May-21 02:31N 55°29' E 012°40'2 3.4
2018-May-21 02:01N 55°28' E 012°39'2 3.4
2018-May-21 01:31N 55°26' E 012°38'2 3.3
2018-May-21 01:01N 55°24' E 012°37'2 3.7
2018-May-21 00:31N 55°23' E 012°37'2 3.8
2018-May-21 00:00N 55°21' E 012°36'2 3.9
2018-May-20 23:31N 55°19' E 012°35'2 4.3
2018-May-20 23:01N 55°17' E 012°35'3 5.2
2018-May-20 22:26N 55°14' E 012°35'3 5.1
2018-May-20 21:55N 55°11' E 012°35'3 4.5
2018-May-20 21:20N 55°08' E 012°35'1 3.8
2018-May-20 21:01N 55°07' E 012°35'2 4.4
2018-May-20 20:30N 55°05' E 012°35'2 4.6
2018-May-20 20:00N 55°03' E 012°35'3 3.5
2018-May-20 19:13N 54°60' E 012°35'1 3.3
2018-May-20 18:51N 54°59' E 012°35'2 6.5
2018-May-20 18:31N 54°57' E 012°34'3 5.8
2018-May-20 18:00N 54°54' E 012°32'3 5.4
2018-May-20 17:29N 54°52' E 012°29'2 4.7
2018-May-20 17:01N 54°50' E 012°26'1 1.3
2018-May-20 16:17N 54°50' E 012°25'1 4.3
2018-May-20 16:00N 54°52' E 012°24'2 4.2
2018-May-20 15:26N 54°54' E 012°23'1 2.2
2018-May-20 15:00N 54°55' E 012°24'1 2.6
2018-May-20 14:30N 54°54' E 012°23'1 3.0
2018-May-20 14:00N 54°52' E 012°22'1 2.9
2018-May-20 13:30N 54°51' E 012°21'3 2.4
2018-May-20 12:23N 54°49' E 012°19'1 2.5
2018-May-20 12:00N 54°48' E 012°18'1 2.9
2018-May-20 11:30N 54°46' E 012°18'2 3.0
2018-May-20 10:57N 54°45' E 012°18'3 2.0
2018-May-20 09:22N 54°42' E 012°18'0 1.0
2018-May-20 09:01N 54°41' E 012°19'0 0.6
2018-May-20 08:21N 54°41' E 012°19'0 0.8
2018-May-20 08:00N 54°41' E 012°19'1 1.1
2018-May-20 07:30N 54°40' E 012°18'2 3.1
2018-May-20 06:56N 54°39' E 012°17'3 6.6
2018-May-20 06:30N 54°36' E 012°19'3 5.7
2018-May-20 06:00N 54°33' E 012°17'3 6.1
2018-May-20 05:31N 54°31' E 012°16'3 6.1
2018-May-20 05:00N 54°28' E 012°14'3 5.8
2018-May-20 04:31N 54°25' E 012°11'3 5.7
2018-May-20 04:00N 54°24' E 012°08'3 6.0
2018-May-20 03:31N 54°24' E 012°03'3 6.0
2018-May-20 03:01N 54°24' E 011°57'3 6.2
2018-May-20 02:31N 54°24' E 011°52'3 6.2
2018-May-20 02:01N 54°25' E 011°47'3 6.3
2018-May-20 01:30N 54°25' E 011°42'3 6.0
2018-May-20 01:01N 54°27' E 011°37'3 6.2
2018-May-20 00:30N 54°28' E 011°32'3 6.0
2018-May-20 00:01N 54°30' E 011°28'3 5.5
2018-May-19 23:31N 54°31' E 011°24'3 5.2
2018-May-19 23:01N 54°32' E 011°20'3 5.1
2018-May-19 22:31N 54°33' E 011°16'2 5.0
2018-May-19 22:01N 54°34' E 011°12'3 5.1
2018-May-19 21:23N 54°34' E 011°06'2 5.3
2018-May-19 21:01N 54°35' E 011°03'3 5.0
2018-May-19 20:31N 54°35' E 010°58'3 5.3
2018-May-19 20:01N 54°34' E 010°54'3 5.6
2018-May-19 19:31N 54°34' E 010°49'3 5.8
2018-May-19 19:01N 54°34' E 010°44'3 5.7
2018-May-19 18:31N 54°34' E 010°39'3 5.7
2018-May-19 18:01N 54°33' E 010°34'3 6.0
2018-May-19 17:31N 54°32' E 010°29'3 6.2
2018-May-19 17:01N 54°31' E 010°25'3 6.2
2018-May-19 16:30N 54°29' E 010°20'3 6.1
2018-May-19 16:01N 54°27' E 010°16'3 6.0
2018-May-19 15:31N 54°25' E 010°13'4 5.8
2018-May-19 14:55N 54°22' E 010°10'1 1.6
2018-May-19 14:20N 54°22' E 010°08'12 5.2
2018-May-19 11:57N 54°22' E 009°47'3 6.6
2018-May-19 11:31N 54°20' E 009°43'3 6.1
2018-May-19 11:00N 54°17' E 009°40'3 5.1
2018-May-19 10:30N 54°15' E 009°37'3 5.8
2018-May-19 10:00N 54°13' E 009°35'2 3.9
2018-May-19 09:30N 54°12' E 009°32'3 6.0
2018-May-19 09:00N 54°11' E 009°28'3 6.8
2018-May-19 08:30N 54°09' E 009°22'4 6.4
2018-May-19 07:49N 54°05' E 009°19'2 6.9
2018-May-19 07:30N 54°03' E 009°18'3 6.8
2018-May-19 07:00N 53°60' E 009°17'3 6.7
2018-May-19 06:30N 53°57' E 009°14'3 6.6
2018-May-19 06:00N 53°55' E 009°10'1 2.7
2018-May-19 05:30N 53°54' E 009°09'1 1.4
2018-May-19 05:00N 53°53' E 009°08'2 4.3
2018-May-19 04:30N 53°52' E 009°05'3 5.2
2018-May-19 04:00N 53°51' E 009°01'2 4.6
2018-May-19 03:30N 53°51' E 008°57'3 5.1
2018-May-19 03:00N 53°50' E 008°52'2 3.7
2018-May-19 02:30N 53°50' E 008°49'2 4.0
2018-May-19 02:00N 53°51' E 008°46'2 3.9
2018-May-19 01:30N 53°52' E 008°44'2 4.4
2018-May-19 00:59N 53°54' E 008°41'2 4.0
2018-May-19 00:30N 53°56' E 008°40'126 6.8
2018-May-18 06:08N 53°31' E 005°12'1 7.8
2018-May-18 05:57N 53°30' E 005°09'3 7.7
2018-May-18 05:30N 53°29' E 005°04'3 6.6
2018-May-18 05:00N 53°28' E 004°59'3 5.8
2018-May-18 04:31N 53°27' E 004°54'  

Dump ship's entire track history